Charlotte Roush — WDE5112 — position and weather

sailwx.info

Track history (hours):
 
Tides and Currents Weather Stations Pressure Air Temp Water Temp Dewpoint Dewpoint Depression Visibility Wind Speed Wind Dir Waves Ship Positions

Charlotte Roush

Owner: AEP River Operations LLC, Chesterfield, MO. More information available from US FCC via Universal Licensing System and Coast Guard Vessel Documentation Center.

Last reported at 2014-Oct-12 23:32 UTC. Time now 2014-Oct-24 23:17 UTC.
Position N 29°57' W 090°18'.
Warning: this ship's position is 11 days out of date.

Length 35 m; draft 3 m.

Type: Towing. MMSI: 367362230.

Date/timePositionNaut miles runAvg speedWind from/ knotsBaromVisibWave heightAir tempDewpointWater temp
2014-Oct-12 23:32N 29°57' W 090°18'0 0.0
2014-Oct-12 22:33N 29°57' W 090°18'1 1.3
2014-Oct-12 21:31N 29°56' W 090°20'1 0.3
2014-Oct-12 17:28N 29°56' W 090°21'0 0.0
2014-Oct-12 16:32N 29°56' W 090°21'0 0.0
2014-Oct-12 15:32N 29°56' W 090°21'12 2.3
2014-Oct-12 10:09N 30°03' W 090°33'3 5.1
2014-Oct-12 09:33N 30°02' W 090°37'4 4.4
2014-Oct-12 08:33N 30°02' W 090°42'5 1.7
2014-Oct-12 05:24N 30°00' W 090°48'0 0.0
2014-Oct-12 04:11N 30°00' W 090°48'0 0.0
2014-Oct-12 03:33N 30°00' W 090°48'0 0.0
2014-Oct-12 02:33N 30°00' W 090°48'0 0.0
2014-Oct-12 01:32N 30°00' W 090°48'0 0.0
2014-Oct-12 00:22N 30°00' W 090°48'0 0.0
2014-Oct-11 23:33N 30°00' W 090°48'0 0.0
2014-Oct-11 22:33N 30°00' W 090°48'0 0.5
2014-Oct-11 21:33N 29°60' W 090°48'2 0.4
2014-Oct-11 17:19N 30°01' W 090°50'0 0.2
2014-Oct-11 15:29N 30°01' W 090°50'2 0.4
2014-Oct-11 10:21N 29°59' W 090°50'2 1.0
2014-Oct-11 08:30N 29°60' W 090°47'4 3.7
2014-Oct-11 07:32N 30°01' W 090°43'5 5.1
2014-Oct-11 06:34N 30°02' W 090°38'5 5.2
2014-Oct-11 05:33N 30°03' W 090°32'3 2.7
2014-Oct-11 04:33N 30°03' W 090°29'0 0.0
2014-Oct-11 03:33N 30°03' W 090°29'0 0.0
2014-Oct-11 02:33N 30°03' W 090°29'1 0.9
2014-Oct-11 01:29N 30°02' W 090°28'4 4.0
2014-Oct-11 00:33N 29°60' W 090°25'4 3.6
2014-Oct-10 23:33N 29°57' W 090°23'1 1.3
2014-Oct-10 22:27N 29°56' W 090°21'11 0.4
2014-Oct-09 17:32N 30°03' W 090°31'13 2.2
2014-Oct-09 11:33N 30°01' W 090°46'3 3.2
2014-Oct-09 10:34N 30°01' W 090°42'3 3.2
2014-Oct-09 09:33N 30°03' W 090°39'3 2.8
2014-Oct-09 08:33N 30°03' W 090°36'3 3.2
2014-Oct-09 07:33N 30°03' W 090°32'2 1.5
2014-Oct-09 06:33N 30°03' W 090°30'0 0.0
2014-Oct-09 05:33N 30°03' W 090°30'0 0.0
2014-Oct-09 04:33N 30°03' W 090°30'0 0.0
2014-Oct-09 03:33N 30°03' W 090°30'0 0.0
2014-Oct-09 02:33N 30°03' W 090°30'0 0.0
2014-Oct-09 01:33N 30°03' W 090°30'0 0.0
2014-Oct-09 00:34N 30°03' W 090°30'0 0.0
2014-Oct-08 23:33N 30°03' W 090°30'0 0.0
2014-Oct-08 22:34N 30°03' W 090°30'0 0.0
2014-Oct-08 21:32N 30°03' W 090°30'  
2014-Oct-06 08:21N 29°55' W 090°12'5 2.3
2014-Oct-06 06:04N 29°58' W 090°17'2 3.7
2014-Oct-06 05:33N 29°57' W 090°19'0 0.0
2014-Oct-06 04:32N 29°57' W 090°18'2 1.9
2014-Oct-06 03:32N 29°56' W 090°21'1 0.6
2014-Oct-06 02:33N 29°56' W 090°21'0 0.0
2014-Oct-06 01:30N 29°56' W 090°21'0 0.0
2014-Oct-06 00:33N 29°56' W 090°21'3 2.7
2014-Oct-05 23:33N 29°58' W 090°24'4 4.3
2014-Oct-05 22:33N 29°60' W 090°28'3 3.5
2014-Oct-05 21:33N 30°03' W 090°29'4 4.2
2014-Oct-05 20:33N 30°03' W 090°34'4 4.4
2014-Oct-05 19:34N 30°03' W 090°39'5 5.1
2014-Oct-05 18:33N 30°01' W 090°44'3 3.2
2014-Oct-05 17:33N 30°00' W 090°48'0 0.0
2014-Oct-05 16:31N 30°00' W 090°48'0 0.0
2014-Oct-05 15:32N 30°00' W 090°48'0 0.0
2014-Oct-05 14:32N 30°00' W 090°48'0 0.0
2014-Oct-05 13:33N 30°00' W 090°48'0 0.1
2014-Oct-05 12:33N 30°00' W 090°48'2 0.8
2014-Oct-05 10:18N 30°01' W 090°50'1 1.4
2014-Oct-05 09:29N 29°60' W 090°50'2 1.7
2014-Oct-05 08:33N 29°60' W 090°48'6 6.1
2014-Oct-05 07:33N 30°02' W 090°41'5 5.3
2014-Oct-05 06:34N 30°03' W 090°35'5 5.2
2014-Oct-05 05:33N 30°03' W 090°29'0 0.4
2014-Oct-05 04:34N 30°03' W 090°29'4 3.6
2014-Oct-05 03:33N 29°60' W 090°27'4 3.9
2014-Oct-05 02:34N 29°58' W 090°24'6 0.2
2014-Oct-03 12:25N 29°58' W 090°16'5 0.7
2014-Oct-03 05:32N 29°56' W 090°21'0 0.1
2014-Oct-03 04:33N 29°56' W 090°21'0 0.0
2014-Oct-03 03:31N 29°56' W 090°21'0 0.1
2014-Oct-03 01:24N 29°56' W 090°21'0 0.2
2014-Oct-03 00:23N 29°56' W 090°21'3 3.3
2014-Oct-02 23:33N 29°58' W 090°24'  
Track history (hours):
 
Tides and Currents Weather Stations Pressure Air Temp Water Temp Dewpoint Dewpoint Depression Visibility Wind Speed Wind Dir Waves Ship Positions

Charlotte Roush

Owner: AEP River Operations LLC, Chesterfield, MO. More information available from US FCC via Universal Licensing System and Coast Guard Vessel Documentation Center.

Last reported at 2014-Oct-12 23:32 UTC. Time now 2014-Oct-24 23:17 UTC.
Position N 29°57' W 090°18'.
Warning: this ship's position is 11 days out of date.

Length 35 m; draft 3 m.

Type: Towing. MMSI: 367362230.

Date/timePositionNaut miles runAvg speedWind from/ knotsBaromVisibWave heightAir tempDewpointWater temp
2014-Oct-12 23:32N 29°57' W 090°18'0 0.0
2014-Oct-12 22:33N 29°57' W 090°18'1 1.3
2014-Oct-12 21:31N 29°56' W 090°20'1 0.3
2014-Oct-12 17:28N 29°56' W 090°21'0 0.0
2014-Oct-12 16:32N 29°56' W 090°21'0 0.0
2014-Oct-12 15:32N 29°56' W 090°21'12 2.3
2014-Oct-12 10:09N 30°03' W 090°33'3 5.1
2014-Oct-12 09:33N 30°02' W 090°37'4 4.4
2014-Oct-12 08:33N 30°02' W 090°42'5 1.7
2014-Oct-12 05:24N 30°00' W 090°48'0 0.0
2014-Oct-12 04:11N 30°00' W 090°48'0 0.0
2014-Oct-12 03:33N 30°00' W 090°48'0 0.0
2014-Oct-12 02:33N 30°00' W 090°48'0 0.0
2014-Oct-12 01:32N 30°00' W 090°48'0 0.0
2014-Oct-12 00:22N 30°00' W 090°48'0 0.0
2014-Oct-11 23:33N 30°00' W 090°48'0 0.0
2014-Oct-11 22:33N 30°00' W 090°48'0 0.5
2014-Oct-11 21:33N 29°60' W 090°48'2 0.4
2014-Oct-11 17:19N 30°01' W 090°50'0 0.2
2014-Oct-11 15:29N 30°01' W 090°50'2 0.4
2014-Oct-11 10:21N 29°59' W 090°50'2 1.0
2014-Oct-11 08:30N 29°60' W 090°47'4 3.7
2014-Oct-11 07:32N 30°01' W 090°43'5 5.1
2014-Oct-11 06:34N 30°02' W 090°38'5 5.2
2014-Oct-11 05:33N 30°03' W 090°32'3 2.7
2014-Oct-11 04:33N 30°03' W 090°29'0 0.0
2014-Oct-11 03:33N 30°03' W 090°29'0 0.0
2014-Oct-11 02:33N 30°03' W 090°29'1 0.9
2014-Oct-11 01:29N 30°02' W 090°28'4 4.0
2014-Oct-11 00:33N 29°60' W 090°25'4 3.6
2014-Oct-10 23:33N 29°57' W 090°23'1 1.3
2014-Oct-10 22:27N 29°56' W 090°21'11 0.4
2014-Oct-09 17:32N 30°03' W 090°31'13 2.2
2014-Oct-09 11:33N 30°01' W 090°46'3 3.2
2014-Oct-09 10:34N 30°01' W 090°42'3 3.2
2014-Oct-09 09:33N 30°03' W 090°39'3 2.8
2014-Oct-09 08:33N 30°03' W 090°36'3 3.2
2014-Oct-09 07:33N 30°03' W 090°32'2 1.5
2014-Oct-09 06:33N 30°03' W 090°30'0 0.0
2014-Oct-09 05:33N 30°03' W 090°30'0 0.0
2014-Oct-09 04:33N 30°03' W 090°30'0 0.0
2014-Oct-09 03:33N 30°03' W 090°30'0 0.0
2014-Oct-09 02:33N 30°03' W 090°30'0 0.0
2014-Oct-09 01:33N 30°03' W 090°30'0 0.0
2014-Oct-09 00:34N 30°03' W 090°30'0 0.0
2014-Oct-08 23:33N 30°03' W 090°30'0 0.0
2014-Oct-08 22:34N 30°03' W 090°30'0 0.0
2014-Oct-08 21:32N 30°03' W 090°30'  
2014-Oct-06 08:21N 29°55' W 090°12'5 2.3
2014-Oct-06 06:04N 29°58' W 090°17'2 3.7
2014-Oct-06 05:33N 29°57' W 090°19'0 0.0
2014-Oct-06 04:32N 29°57' W 090°18'2 1.9
2014-Oct-06 03:32N 29°56' W 090°21'1 0.6
2014-Oct-06 02:33N 29°56' W 090°21'0 0.0
2014-Oct-06 01:30N 29°56' W 090°21'0 0.0
2014-Oct-06 00:33N 29°56' W 090°21'3 2.7
2014-Oct-05 23:33N 29°58' W 090°24'4 4.3
2014-Oct-05 22:33N 29°60' W 090°28'3 3.5
2014-Oct-05 21:33N 30°03' W 090°29'4 4.2
2014-Oct-05 20:33N 30°03' W 090°34'4 4.4
2014-Oct-05 19:34N 30°03' W 090°39'5 5.1
2014-Oct-05 18:33N 30°01' W 090°44'3 3.2
2014-Oct-05 17:33N 30°00' W 090°48'0 0.0
2014-Oct-05 16:31N 30°00' W 090°48'0 0.0
2014-Oct-05 15:32N 30°00' W 090°48'0 0.0
2014-Oct-05 14:32N 30°00' W 090°48'0 0.0
2014-Oct-05 13:33N 30°00' W 090°48'0 0.1
2014-Oct-05 12:33N 30°00' W 090°48'2 0.8
2014-Oct-05 10:18N 30°01' W 090°50'1 1.4
2014-Oct-05 09:29N 29°60' W 090°50'2 1.7
2014-Oct-05 08:33N 29°60' W 090°48'6 6.1
2014-Oct-05 07:33N 30°02' W 090°41'5 5.3
2014-Oct-05 06:34N 30°03' W 090°35'5 5.2
2014-Oct-05 05:33N 30°03' W 090°29'0 0.4
2014-Oct-05 04:34N 30°03' W 090°29'4 3.6
2014-Oct-05 03:33N 29°60' W 090°27'4 3.9
2014-Oct-05 02:34N 29°58' W 090°24'6 0.2
2014-Oct-03 12:25N 29°58' W 090°16'5 0.7
2014-Oct-03 05:32N 29°56' W 090°21'0 0.1
2014-Oct-03 04:33N 29°56' W 090°21'0 0.0
2014-Oct-03 03:31N 29°56' W 090°21'0 0.1
2014-Oct-03 01:24N 29°56' W 090°21'0 0.2
2014-Oct-03 00:23N 29°56' W 090°21'3 3.3
2014-Oct-02 23:33N 29°58' W 090°24'  

Dump ship's entire track history